Terminal Aerodrome Forecast
Issued by NWS Charleston, WV

Current Version | Previous Version | Text Only | Print | Product List | Glossary Off
Versions: 1 2 3 4 5 6 7 8 9 10 11 12 13 14 15 16 17 18 19 20 21 22 23 24

000
FTUS41 KRLX 151127
TAFCRW
TAF
KCRW 151127Z 1512/1612 15005KT P6SM OVC060
      TEMPO 1512/1516 5SM -SN OVC025
     FM151600 16006KT P6SM OVC040
     FM151900 19009G15KT P6SM BKN080
     FM160000 18008KT P6SM OVC060
     FM160300 19004KT P6SM OVC050
     FM160800 00000KT 2SM -SN OVC025
     FM160900 00000KT 3/4SM -SN OVC015=

USA.gov is the U.S. government's official web portal to all federal, state and local government web resources and services.